Time;durP1;ratioP1;P1;durP2;ratioP2;P2;SDS_P1;SDS_P2;PMS_P1;PMS_P2;Temp;Humidity;BMP_temperature;BMP_pressure;BME280_temperature;BME280_humidity;BME280_pressure;Samples;Min_cycle;Max_cycle;Signal;HPM_P1;HPM_P2
2022/11/01 00:03:28;;;;;;;11.70;3.58;;;;;;;;;;8269340;28;20044;-63
2022/11/01 00:07:29;;;;;;;8.18;2.70;;;;;;;;;;8269843;28;20029;-62
2022/11/01 00:11:29;;;;;;;9.90;3.05;;;;;;;;;;8268989;28;20116;-62
2022/11/01 00:15:29;;;;;;;10.18;3.35;;;;;;;;;;8266984;28;20061;-62
2022/11/01 00:19:29;;;;;;;7.00;3.13;;;;;;;;;;8271107;28;20056;-63
2022/11/01 00:23:29;;;;;;;11.95;3.60;;;;;;;;;;8271231;28;20038;-62
2022/11/01 00:27:30;;;;;;;14.10;3.30;;;;;;;;;;8269896;28;20030;-63
2022/11/01 00:31:30;;;;;;;6.72;3.28;;;;;;;;;;8268690;28;20034;-62
2022/11/01 00:35:31;;;;;;;11.05;3.50;;;;;;;;;;8271473;28;20080;-63
2022/11/01 00:39:31;;;;;;;12.75;3.40;;;;;;;;;;8268459;28;20144;-63
2022/11/01 00:43:35;;;;;;;9.27;3.40;;;;;;;;;;8268546;28;20039;-62
2022/11/01 00:47:35;;;;;;;11.20;3.10;;;;;;;;;;8268198;28;20165;-63
2022/11/01 00:51:35;;;;;;;6.70;2.83;;;;;;;;;;8269759;28;20025;-63
2022/11/01 00:55:35;;;;;;;8.05;3.00;;;;;;;;;;8269834;28;20021;-62
2022/11/01 00:59:36;;;;;;;9.40;3.38;;;;;;;;;;8269945;28;20065;-63
2022/11/01 01:03:36;;;;;;;13.35;3.30;;;;;;;;;;8268480;28;20127;-62
2022/11/01 01:07:36;;;;;;;7.40;3.17;;;;;;;;;;8271430;28;20113;-62
2022/11/01 01:11:38;;;;;;;12.25;2.95;;;;;;;;;;8269243;28;20871;-63
2022/11/01 01:15:38;;;;;;;7.20;2.95;;;;;;;;;;8281795;28;20106;-62
2022/11/01 01:19:39;;;;;;;7.63;2.75;;;;;;;;;;8276459;28;20177;-62
2022/11/01 01:23:39;;;;;;;5.90;2.90;;;;;;;;;;8276651;28;20033;-62
2022/11/01 01:27:39;;;;;;;10.63;3.00;;;;;;;;;;8274270;28;20782;-63
2022/11/01 01:31:40;;;;;;;17.00;3.17;;;;;;;;;;8274966;28;20037;-67
2022/11/01 01:35:41;;;;;;;8.52;2.67;;;;;;;;;;8272953;28;20057;-63
2022/11/01 01:39:41;;;;;;;6.95;2.90;;;;;;;;;;8272989;28;20084;-62
2022/11/01 01:43:42;;;;;;;6.32;2.88;;;;;;;;;;8274760;28;20037;-62
2022/11/01 01:47:44;;;;;;;7.88;2.60;;;;;;;;;;8274729;28;20057;-62
2022/11/01 01:51:45;;;;;;;10.75;3.30;;;;;;;;;;8273692;28;20101;-63
2022/11/01 01:55:54;;;;;;;6.03;2.60;;;;;;;;;;8276162;28;20786;-62
2022/11/01 01:59:54;;;;;;;11.25;3.20;;;;;;;;;;8274249;28;20289;-64
2022/11/01 02:03:55;;;;;;;8.00;2.85;;;;;;;;;;8273611;28;20052;-63
2022/11/01 02:07:55;;;;;;;6.73;3.07;;;;;;;;;;8273657;28;20117;-63
2022/11/01 02:11:56;;;;;;;8.43;3.30;;;;;;;;;;8274417;28;20067;-63
2022/11/01 02:16:13;;;;;;;10.98;3.05;;;;;;;;;;8273691;28;20465;-63
2022/11/01 02:20:36;;;;;;;9.68;3.00;;;;;;;;;;8274230;28;20030;-62
2022/11/01 02:24:54;;;;;;;8.75;3.13;;;;;;;;;;8271519;28;20091;-63
2022/11/01 02:29:04;;;;;;;13.23;3.45;;;;;;;;;;8271820;28;20065;-62
2022/11/01 02:33:23;;;;;;;9.52;3.30;;;;;;;;;;8271291;28;20649;-63
2022/11/01 02:37:33;;;;;;;8.30;3.22;;;;;;;;;;8271191;28;20033;-62
2022/11/01 02:41:38;;;;;;;9.90;3.03;;;;;;;;;;8273423;28;20121;-63
2022/11/01 02:45:41;;;;;;;9.65;3.05;;;;;;;;;;8273829;28;21006;-63
2022/11/01 02:49:45;;;;;;;10.32;3.30;;;;;;;;;;8271405;28;20024;-62
2022/11/01 02:53:46;;;;;;;12.07;3.65;;;;;;;;;;8272624;28;20080;-63
2022/11/01 02:57:46;;;;;;;11.43;3.87;;;;;;;;;;8271634;28;20041;-63
2022/11/01 03:01:51;;;;;;;10.52;3.55;;;;;;;;;;8271982;28;20053;-63
2022/11/01 03:06:04;;;;;;;12.88;3.72;;;;;;;;;;8274311;28;20036;-63
2022/11/01 03:10:05;;;;;;;15.32;4.22;;;;;;;;;;8273070;28;20085;-62
2022/11/01 03:14:24;;;;;;;9.63;3.60;;;;;;;;;;8272374;28;20026;-63
2022/11/01 03:18:44;;;;;;;8.55;3.28;;;;;;;;;;8271226;28;20591;-63
2022/11/01 03:22:51;;;;;;;9.15;3.10;;;;;;;;;;8272815;28;20441;-64
2022/11/01 03:26:59;;;;;;;5.57;2.90;;;;;;;;;;8277499;28;20651;-62
2022/11/01 03:31:04;;;;;;;9.45;3.20;;;;;;;;;;8270951;28;20702;-62
2022/11/01 03:35:07;;;;;;;7.13;3.50;;;;;;;;;;8270898;28;20026;-63
2022/11/01 03:39:14;;;;;;;5.90;2.87;;;;;;;;;;8272559;28;20932;-63
2022/11/01 03:43:15;;;;;;;7.35;3.20;;;;;;;;;;8270431;28;20033;-63
2022/11/01 03:47:15;;;;;;;9.18;2.75;;;;;;;;;;8273533;28;20045;-63
2022/11/01 03:51:16;;;;;;;5.65;3.03;;;;;;;;;;8270927;28;20834;-63
2022/11/01 03:55:16;;;;;;;9.27;3.30;;;;;;;;;;8271219;28;20109;-63
2022/11/01 03:59:17;;;;;;;5.40;2.97;;;;;;;;;;8271244;28;20060;-63
2022/11/01 04:03:17;;;;;;;6.47;2.70;;;;;;;;;;8271903;28;20042;-63
2022/11/01 04:07:17;;;;;;;5.07;2.40;;;;;;;;;;8271513;28;20050;-63
2022/11/01 04:11:17;;;;;;;4.75;2.75;;;;;;;;;;8269476;28;20026;-63
2022/11/01 04:23:56;;;;;;;3.05;1.80;;;;;;;;;;8270534;28;20134;-64
2022/11/01 04:27:57;;;;;;;4.00;1.70;;;;;;;;;;8270146;28;20026;-63
2022/11/01 04:31:57;;;;;;;3.70;2.38;;;;;;;;;;8270094;28;20096;-62
2022/11/01 04:36:02;;;;;;;6.95;2.33;;;;;;;;;;8271455;28;20036;-63
2022/11/01 04:40:03;;;;;;;8.30;2.75;;;;;;;;;;8270956;28;20026;-63
2022/11/01 04:44:04;;;;;;;3.58;1.95;;;;;;;;;;8271669;28;20744;-63
2022/11/01 04:48:05;;;;;;;3.10;2.10;;;;;;;;;;8272103;28;20467;-64
2022/11/01 04:52:06;;;;;;;4.40;2.00;;;;;;;;;;8276230;28;20025;-63
2022/11/01 04:56:07;;;;;;;4.20;2.15;;;;;;;;;;8278109;28;20025;-62
2022/11/01 05:00:10;;;;;;;4.22;2.38;;;;;;;;;;8277815;28;21064;-63
2022/11/01 05:04:10;;;;;;;3.85;1.85;;;;;;;;;;8277219;28;20065;-64
2022/11/01 05:08:10;;;;;;;3.75;2.00;;;;;;;;;;8275036;28;20068;-63
2022/11/01 05:12:11;;;;;;;5.60;2.15;;;;;;;;;;8275362;28;20053;-63
2022/11/01 05:16:11;;;;;;;3.53;2.53;;;;;;;;;;8276830;28;20684;-62
2022/11/01 05:20:12;;;;;;;5.03;2.08;;;;;;;;;;8275079;28;20030;-63
2022/11/01 05:24:12;;;;;;;6.13;2.53;;;;;;;;;;8277641;28;20095;-63
2022/11/01 05:28:13;;;;;;;5.05;2.47;;;;;;;;;;8273491;28;20394;-62
2022/11/01 05:32:13;;;;;;;4.95;2.40;;;;;;;;;;8275095;28;20144;-64
2022/11/01 05:36:13;;;;;;;6.28;2.42;;;;;;;;;;8275777;28;20734;-62
2022/11/01 05:40:13;;;;;;;7.20;2.70;;;;;;;;;;8276573;28;20033;-62
2022/11/01 05:44:14;;;;;;;4.40;2.38;;;;;;;;;;8273249;28;20876;-62
2022/11/01 05:48:14;;;;;;;5.18;2.75;;;;;;;;;;8275818;28;20033;-62
2022/11/01 05:52:14;;;;;;;5.93;2.50;;;;;;;;;;8275135;28;20032;-63
2022/11/01 05:56:15;;;;;;;4.93;2.60;;;;;;;;;;8274468;28;20030;-62
2022/11/01 06:00:15;;;;;;;6.15;2.80;;;;;;;;;;8273267;28;20033;-63
2022/11/01 06:04:15;;;;;;;5.00;2.73;;;;;;;;;;8275281;28;20158;-63
2022/11/01 06:08:15;;;;;;;6.57;2.67;;;;;;;;;;8275975;28;21203;-63
2022/11/01 06:12:16;;;;;;;5.57;2.67;;;;;;;;;;8274973;28;20029;-64
2022/11/01 06:16:16;;;;;;;6.47;2.78;;;;;;;;;;8275354;28;20273;-67
2022/11/01 06:20:16;;;;;;;6.73;2.87;;;;;;;;;;8273003;28;20029;-62
2022/11/01 06:24:16;;;;;;;6.03;2.72;;;;;;;;;;8274748;28;20257;-63
2022/11/01 06:28:17;;;;;;;6.10;2.80;;;;;;;;;;8275340;28;20546;-62
2022/11/01 06:32:17;;;;;;;7.13;3.28;;;;;;;;;;8272499;28;20038;-63
2022/11/01 06:36:17;;;;;;;4.60;2.40;;;;;;;;;;8272427;28;20025;-62
2022/11/01 06:40:17;;;;;;;4.40;2.35;;;;;;;;;;8273337;28;20112;-62
2022/11/01 06:44:17;;;;;;;4.93;2.40;;;;;;;;;;8274096;28;20064;-63
2022/11/01 06:48:18;;;;;;;5.97;2.80;;;;;;;;;;8271445;28;20799;-64
2022/11/01 06:52:18;;;;;;;5.33;2.67;;;;;;;;;;8271192;28;20027;-62
2022/11/01 06:56:18;;;;;;;3.35;2.33;;;;;;;;;;8272433;28;20021;-63
2022/11/01 07:00:18;;;;;;;6.73;2.23;;;;;;;;;;8271888;28;20140;-62
2022/11/01 07:04:20;;;;;;;3.87;2.23;;;;;;;;;;8272335;28;20272;-62
2022/11/01 07:08:20;;;;;;;7.15;2.55;;;;;;;;;;8273023;28;20658;-62
2022/11/01 07:12:20;;;;;;;6.93;2.20;;;;;;;;;;8268746;28;20887;-62
2022/11/01 07:16:21;;;;;;;4.35;2.35;;;;;;;;;;8263320;28;20030;-63
2022/11/01 07:20:21;;;;;;;8.13;2.53;;;;;;;;;;8261430;28;20026;-62
2022/11/01 07:24:22;;;;;;;6.60;2.10;;;;;;;;;;8263575;28;20602;-62
2022/11/01 07:28:22;;;;;;;9.45;2.65;;;;;;;;;;8262456;28;20041;-62
2022/11/01 07:32:22;;;;;;;9.35;2.40;;;;;;;;;;8260776;28;20045;-62
2022/11/01 07:36:23;;;;;;;4.72;2.03;;;;;;;;;;8266217;28;20958;-63
2022/11/01 07:40:26;;;;;;;3.78;2.30;;;;;;;;;;8269816;28;20025;-63
2022/11/01 07:44:27;;;;;;;3.97;2.43;;;;;;;;;;8267635;28;20025;-62
2022/11/01 07:48:27;;;;;;;8.25;2.55;;;;;;;;;;8269424;28;21274;-63
2022/11/01 07:52:27;;;;;;;5.47;2.30;;;;;;;;;;8269885;28;20111;-63
2022/11/01 07:56:28;;;;;;;4.60;2.20;;;;;;;;;;8270169;28;21057;-62
2022/11/01 08:00:28;;;;;;;5.17;2.20;;;;;;;;;;8270689;28;20038;-62
2022/11/01 08:04:28;;;;;;;6.47;2.10;;;;;;;;;;8271159;28;20132;-63
2022/11/01 08:08:29;;;;;;;3.05;1.90;;;;;;;;;;8270735;28;20105;-62
2022/11/01 08:12:29;;;;;;;3.60;1.70;;;;;;;;;;8270967;28;20030;-62
2022/11/01 08:16:29;;;;;;;4.97;2.25;;;;;;;;;;8270670;28;20128;-63
2022/11/01 08:20:29;;;;;;;4.37;1.70;;;;;;;;;;8283629;28;20014;-62
2022/11/01 08:24:30;;;;;;;4.90;1.70;;;;;;;;;;8268893;28;20063;-63
2022/11/01 08:28:30;;;;;;;4.38;1.50;;;;;;;;;;8267434;28;20025;-63
2022/11/01 08:32:30;;;;;;;4.65;1.40;;;;;;;;;;8267582;28;20029;-63
2022/11/01 08:36:32;;;;;;;3.70;1.40;;;;;;;;;;8268849;28;20097;-64
2022/11/01 08:40:33;;;;;;;3.58;1.30;;;;;;;;;;8268094;28;20287;-62
2022/11/01 08:44:33;;;;;;;4.03;1.40;;;;;;;;;;8269731;28;20029;-63
2022/11/01 08:48:33;;;;;;;4.00;1.63;;;;;;;;;;8268254;28;20323;-62
2022/11/01 08:52:34;;;;;;;3.80;1.60;;;;;;;;;;8271746;28;20283;-63
2022/11/01 08:56:35;;;;;;;3.35;1.45;;;;;;;;;;8267838;28;20268;-63
2022/11/01 09:00:36;;;;;;;4.25;1.48;;;;;;;;;;8268346;28;20029;-63
2022/11/01 09:04:36;;;;;;;3.10;1.70;;;;;;;;;;8269069;28;20088;-62
2022/11/01 09:08:36;;;;;;;2.20;1.30;;;;;;;;;;8272249;28;20033;-62
2022/11/01 09:12:37;;;;;;;4.25;1.40;;;;;;;;;;8270290;28;20038;-63
2022/11/01 09:16:37;;;;;;;2.17;1.10;;;;;;;;;;8267622;28;20041;-63
2022/11/01 09:20:37;;;;;;;3.22;1.10;;;;;;;;;;8268584;28;20714;-64
2022/11/01 09:24:37;;;;;;;3.57;1.20;;;;;;;;;;8271999;28;20079;-63
2022/11/01 09:28:38;;;;;;;2.03;1.10;;;;;;;;;;8271328;28;20800;-63
2022/11/01 09:32:38;;;;;;;8.60;1.20;;;;;;;;;;8269630;28;20099;-63
2022/11/01 09:36:38;;;;;;;4.40;1.20;;;;;;;;;;8272852;28;20802;-63
2022/11/01 09:40:43;;;;;;;3.25;0.90;;;;;;;;;;8275206;28;20052;-62
2022/11/01 09:44:44;;;;;;;5.68;1.30;;;;;;;;;;8273614;28;20021;-62
2022/11/01 09:48:45;;;;;;;3.50;0.95;;;;;;;;;;8275626;28;20050;-62
2022/11/01 09:52:45;;;;;;;2.75;1.08;;;;;;;;;;8274759;28;20582;-63
2022/11/01 09:56:50;;;;;;;3.15;1.00;;;;;;;;;;8275345;28;20032;-63
2022/11/01 10:00:58;;;;;;;2.90;0.90;;;;;;;;;;8273688;28;20933;-62
2022/11/01 10:05:20;;;;;;;2.95;1.00;;;;;;;;;;8275847;28;20030;-62
2022/11/01 10:09:32;;;;;;;3.15;1.10;;;;;;;;;;8274122;28;20564;-62
2022/11/01 10:13:51;;;;;;;2.33;0.80;;;;;;;;;;8273207;28;20022;-63
2022/11/01 10:17:53;;;;;;;3.35;0.90;;;;;;;;;;8272601;28;20036;-62
2022/11/01 10:21:55;;;;;;;1.65;0.77;;;;;;;;;;8272765;28;20865;-63
2022/11/01 10:25:56;;;;;;;5.55;0.90;;;;;;;;;;8276535;28;20060;-62
2022/11/01 10:30:06;;;;;;;6.05;1.08;;;;;;;;;;8273379;28;20033;-63
2022/11/01 10:34:17;;;;;;;4.30;1.00;;;;;;;;;;8275896;28;20089;-62
2022/11/01 10:38:17;;;;;;;2.72;1.10;;;;;;;;;;8273218;28;20029;-62
2022/11/01 10:42:17;;;;;;;5.22;0.90;;;;;;;;;;8274531;28;20580;-63
2022/11/01 10:46:26;;;;;;;3.10;0.80;;;;;;;;;;8274114;28;20547;-62
2022/11/01 10:50:28;;;;;;;2.38;1.15;;;;;;;;;;8274919;28;20470;-63
2022/11/01 10:54:30;;;;;;;2.72;0.90;;;;;;;;;;8275355;28;20103;-63
2022/11/01 10:58:41;;;;;;;5.18;0.95;;;;;;;;;;8273026;28;20117;-64
2022/11/01 11:02:49;;;;;;;5.13;1.00;;;;;;;;;;8270404;28;20037;-63
2022/11/01 11:06:50;;;;;;;6.68;1.20;;;;;;;;;;8274545;28;20041;-63
2022/11/01 11:10:51;;;;;;;5.10;0.90;;;;;;;;;;8271705;28;20052;-63
2022/11/01 11:14:52;;;;;;;4.75;1.20;;;;;;;;;;8272216;28;20021;-64
2022/11/01 11:19:20;;;;;;;5.35;1.27;;;;;;;;;;8273412;28;20179;-63
2022/11/01 11:23:21;;;;;;;4.72;1.10;;;;;;;;;;8251715;28;20037;-63
2022/11/01 11:27:24;;;;;;;2.88;1.13;;;;;;;;;;8273314;28;20033;-64
2022/11/01 11:31:27;;;;;;;6.13;1.25;;;;;;;;;;8253422;28;20034;-63
2022/11/01 11:35:29;;;;;;;3.27;1.00;;;;;;;;;;8263533;28;20017;-62
2022/11/01 11:39:31;;;;;;;2.42;1.10;;;;;;;;;;8271054;28;20128;-63
2022/11/01 11:43:32;;;;;;;3.58;1.05;;;;;;;;;;8272138;28;20053;-62
2022/11/01 11:47:36;;;;;;;5.32;1.20;;;;;;;;;;8271506;28;20084;-62
2022/11/01 11:51:37;;;;;;;6.15;1.00;;;;;;;;;;8271252;28;20025;-61
2022/11/01 11:55:39;;;;;;;2.90;0.90;;;;;;;;;;8272660;28;20072;-62
2022/11/01 11:59:40;;;;;;;4.45;1.15;;;;;;;;;;8273224;28;20079;-62
2022/11/01 12:03:44;;;;;;;4.75;1.10;;;;;;;;;;8271501;28;20037;-62
2022/11/01 12:07:49;;;;;;;8.40;1.23;;;;;;;;;;8270617;28;20036;-62
2022/11/01 12:11:49;;;;;;;5.97;1.20;;;;;;;;;;8271241;28;20107;-63
2022/11/01 12:16:04;;;;;;;3.35;0.98;;;;;;;;;;8269968;28;20041;-62
2022/11/01 12:20:13;;;;;;;4.43;1.42;;;;;;;;;;8270645;28;20030;-63
2022/11/01 12:24:27;;;;;;;3.95;1.00;;;;;;;;;;8270962;28;20026;-61
2022/11/01 12:28:27;;;;;;;;;;;;;;;;;;8267873;28;20048;-62
2022/11/01 12:32:38;;;;;;;5.25;1.33;;;;;;;;;;8263148;28;20058;-62
2022/11/01 12:36:45;;;;;;;6.93;1.60;;;;;;;;;;8266306;28;20140;-61
2022/11/01 12:40:49;;;;;;;4.80;1.20;;;;;;;;;;8265403;28;20022;-62
2022/11/01 12:44:52;;;;;;;5.22;1.20;;;;;;;;;;8266290;28;20037;-63
2022/11/01 12:48:55;;;;;;;5.13;1.13;;;;;;;;;;8266535;28;20034;-62
2022/11/01 12:53:01;;;;;;;8.93;1.43;;;;;;;;;;8266251;28;20878;-62
2022/11/01 12:57:01;;;;;;;3.92;1.20;;;;;;;;;;8265519;28;20651;-61
2022/11/01 13:01:14;;;;;;;6.88;1.08;;;;;;;;;;8264448;28;20038;-61
2022/11/01 13:05:18;;;;;;;5.47;1.50;;;;;;;;;;8266613;28;20060;-62
2022/11/01 13:09:20;;;;;;;;;;;;;;;;;;8266401;28;20179;-61
2022/11/01 13:13:32;;;;;;;3.38;1.08;;;;;;;;;;8271309;28;19963;-65
2022/11/01 13:17:32;;;;;;;3.90;1.20;;;;;;;;;;8267663;28;20042;-61
2022/11/01 13:21:45;;;;;;;5.13;1.00;;;;;;;;;;8273596;28;20099;-61
2022/11/01 13:25:48;;;;;;;6.88;1.27;;;;;;;;;;8273925;28;20324;-62
2022/11/01 13:30:00;;;;;;;7.23;1.33;;;;;;;;;;8272964;28;20076;-62
2022/11/01 13:34:19;;;;;;;7.00;1.40;;;;;;;;;;8272358;28;20277;-61
2022/11/01 13:38:25;;;;;;;5.00;1.20;;;;;;;;;;8273676;28;20022;-61
2022/11/01 13:42:29;;;;;;;7.55;1.23;;;;;;;;;;8272133;28;20468;-63
2022/11/01 13:46:48;;;;;;;6.07;1.40;;;;;;;;;;8272181;28;20516;-62
2022/11/01 13:50:51;;;;;;;4.38;1.40;;;;;;;;;;8273279;28;20546;-62
2022/11/01 13:55:03;;;;;;;4.77;1.10;;;;;;;;;;8275086;28;20026;-63
2022/11/01 13:59:14;;;;;;;5.95;1.35;;;;;;;;;;8272457;28;20596;-62
2022/11/01 14:03:35;;;;;;;7.05;1.17;;;;;;;;;;8271545;28;20069;-62
2022/11/01 14:07:37;;;;;;;5.88;1.40;;;;;;;;;;8273034;28;20032;-62
2022/11/01 14:11:40;;;;;;;4.13;1.30;;;;;;;;;;8273179;28;20014;-62
2022/11/01 14:15:52;;;;;;;6.20;1.58;;;;;;;;;;8277007;28;20057;-62
2022/11/01 14:19:55;;;;;;;7.93;1.40;;;;;;;;;;8272721;28;20501;-62
2022/11/01 14:24:08;;;;;;;5.03;1.27;;;;;;;;;;8270038;28;20017;-62
2022/11/01 14:28:29;;;;;;;6.25;1.52;;;;;;;;;;8271124;28;20069;-62
2022/11/01 14:32:30;;;;;;;4.55;1.40;;;;;;;;;;8268703;28;20283;-62
2022/11/01 14:36:32;;;;;;;5.18;1.55;;;;;;;;;;8266534;28;20018;-62
2022/11/01 14:40:37;;;;;;;4.57;1.35;;;;;;;;;;8267515;28;20025;-62
2022/11/01 14:44:39;;;;;;;6.63;1.25;;;;;;;;;;8266383;28;20110;-62
2022/11/01 14:48:48;;;;;;;5.32;1.30;;;;;;;;;;8266895;28;20037;-62
2022/11/01 14:52:52;;;;;;;9.02;1.65;;;;;;;;;;8265629;28;20022;-63
2022/11/01 14:56:54;;;;;;;5.97;1.52;;;;;;;;;;8267853;28;20328;-63
2022/11/01 15:00:54;;;;;;;7.63;1.45;;;;;;;;;;8264504;28;20758;-62
2022/11/01 15:04:58;;;;;;;6.90;1.63;;;;;;;;;;8268150;28;20139;-62
2022/11/01 15:09:02;;;;;;;6.68;1.55;;;;;;;;;;8265436;28;20038;-62
2022/11/01 15:13:03;;;;;;;5.90;1.63;;;;;;;;;;8265129;28;21075;-63
2022/11/01 15:17:04;;;;;;;4.95;1.23;;;;;;;;;;8265130;28;20808;-63
2022/11/01 15:21:05;;;;;;;7.40;1.63;;;;;;;;;;8265728;28;20025;-62
2022/11/01 15:25:06;;;;;;;7.18;1.75;;;;;;;;;;8267389;28;20029;-63
2022/11/01 15:29:06;;;;;;;6.75;1.70;;;;;;;;;;8266333;28;20084;-63
2022/11/01 15:33:33;;;;;;;6.82;1.50;;;;;;;;;;8265912;28;20030;-64
2022/11/01 15:37:34;;;;;;;6.97;1.85;;;;;;;;;;8262404;28;20033;-61
2022/11/01 15:41:35;;;;;;;7.65;1.60;;;;;;;;;;8266825;28;20038;-63
2022/11/01 15:45:36;;;;;;;9.95;1.95;;;;;;;;;;8265277;28;20041;-62
2022/11/01 15:49:46;;;;;;;6.88;1.48;;;;;;;;;;8269527;28;20025;-62
2022/11/01 15:53:48;;;;;;;7.85;1.52;;;;;;;;;;8270898;28;20102;-63
2022/11/01 15:57:57;;;;;;;5.07;1.60;;;;;;;;;;8269337;28;20032;-63
2022/11/01 16:02:00;;;;;;;5.35;1.58;;;;;;;;;;8269517;28;20041;-62
2022/11/01 16:06:03;;;;;;;5.93;1.43;;;;;;;;;;8268514;28;20026;-64
2022/11/01 16:10:04;;;;;;;5.45;1.52;;;;;;;;;;8270409;28;20018;-63
2022/11/01 16:14:16;;;;;;;7.43;1.70;;;;;;;;;;8268943;28;20057;-64
2022/11/01 16:18:22;;;;;;;6.60;1.70;;;;;;;;;;8267336;28;20142;-63
2022/11/01 16:22:32;;;;;;;6.07;1.33;;;;;;;;;;8269202;28;20872;-63
2022/11/01 16:26:36;;;;;;;5.53;1.58;;;;;;;;;;8269596;28;20055;-63
2022/11/01 16:30:41;;;;;;;8.20;2.00;;;;;;;;;;8267632;28;20056;-63
2022/11/01 16:34:42;;;;;;;5.30;1.30;;;;;;;;;;8266672;28;20036;-63
2022/11/01 16:38:43;;;;;;;8.35;1.75;;;;;;;;;;8269683;28;20116;-63
2022/11/01 16:42:43;;;;;;;5.75;1.55;;;;;;;;;;8267511;28;20109;-63
2022/11/01 16:46:43;;;;;;;4.53;1.20;;;;;;;;;;8273893;28;20077;-63
2022/11/01 16:50:43;;;;;;;5.85;1.63;;;;;;;;;;8275024;28;20281;-63
2022/11/01 16:54:47;;;;;;;10.52;1.45;;;;;;;;;;8274438;28;20084;-63
2022/11/01 16:58:47;;;;;;;5.63;1.38;;;;;;;;;;8273596;28;20132;-65
2022/11/01 17:02:47;;;;;;;5.43;1.55;;;;;;;;;;8269106;28;20033;-63
2022/11/01 17:06:48;;;;;;;3.70;1.20;;;;;;;;;;8270268;28;20647;-63
2022/11/01 17:10:49;;;;;;;9.77;1.75;;;;;;;;;;8269706;28;20026;-63
2022/11/01 17:14:51;;;;;;;6.00;1.58;;;;;;;;;;8268505;28;20535;-63
2022/11/01 17:18:53;;;;;;;7.45;1.63;;;;;;;;;;8270127;28;20495;-62
2022/11/01 17:22:54;;;;;;;7.35;1.50;;;;;;;;;;8270137;28;20029;-63
2022/11/01 17:26:55;;;;;;;7.20;1.42;;;;;;;;;;8271339;28;20026;-63
2022/11/01 17:30:55;;;;;;;5.50;1.40;;;;;;;;;;8268354;28;20045;-63
2022/11/01 17:34:55;;;;;;;7.88;1.40;;;;;;;;;;8270746;28;20022;-63
2022/11/01 17:38:56;;;;;;;8.65;1.33;;;;;;;;;;8272191;28;21713;-63
2022/11/01 17:42:56;;;;;;;6.80;1.45;;;;;;;;;;8271995;28;20037;-63
2022/11/01 17:46:56;;;;;;;7.40;1.73;;;;;;;;;;8270267;28;20041;-63
2022/11/01 17:50:59;;;;;;;7.20;1.40;;;;;;;;;;8271985;28;20072;-64
2022/11/01 17:54:59;;;;;;;5.97;1.40;;;;;;;;;;8273956;28;20022;-63
2022/11/01 17:59:00;;;;;;;7.25;1.13;;;;;;;;;;8270735;28;20028;-65
2022/11/01 18:03:01;;;;;;;8.02;1.13;;;;;;;;;;8272475;28;20132;-63
2022/11/01 18:07:02;;;;;;;5.78;1.25;;;;;;;;;;8268371;28;20026;-63
2022/11/01 18:11:02;;;;;;;7.55;1.40;;;;;;;;;;8270862;28;20786;-63
2022/11/01 18:15:03;;;;;;;5.43;1.40;;;;;;;;;;8273904;28;20025;-63
2022/11/01 18:19:17;;;;;;;6.13;1.25;;;;;;;;;;8270820;28;20084;-63
2022/11/01 18:23:18;;;;;;;4.97;1.27;;;;;;;;;;8270497;28;20080;-62
2022/11/01 18:27:23;;;;;;;4.20;1.10;;;;;;;;;;8272632;28;20042;-62
2022/11/01 18:31:23;;;;;;;;;;;;;;;;;;8269631;28;20048;-63
2022/11/01 18:35:27;;;;;;;8.15;1.50;;;;;;;;;;8271109;28;20459;-62
2022/11/01 18:39:40;;;;;;;9.20;1.17;;;;;;;;;;8269163;28;20025;-63
2022/11/01 18:43:41;;;;;;;5.07;1.20;;;;;;;;;;8271122;28;20037;-62
2022/11/01 18:47:44;;;;;;;5.10;1.25;;;;;;;;;;8269620;28;20036;-63
2022/11/01 18:51:51;;;;;;;6.65;1.50;;;;;;;;;;8285752;28;20034;-63
2022/11/01 18:55:53;;;;;;;5.95;1.50;;;;;;;;;;8275750;28;20523;-63
2022/11/01 18:59:53;;;;;;;7.15;2.00;;;;;;;;;;8267808;28;20025;-62
2022/11/01 19:03:57;;;;;;;12.88;1.70;;;;;;;;;;8269716;28;21015;-63
2022/11/01 19:07:57;;;;;;;;;;;;;;;;;;8271148;28;20022;-62
2022/11/01 19:12:13;;;;;;;7.60;1.40;;;;;;;;;;8268500;28;20027;-63
2022/11/01 19:16:13;;;;;;;5.78;1.48;;;;;;;;;;8268792;28;20037;-63
2022/11/01 19:20:21;;;;;;;5.88;1.30;;;;;;;;;;8268780;28;20032;-63
2022/11/01 19:24:33;;;;;;;6.03;1.35;;;;;;;;;;8269938;28;20037;-63
2022/11/01 19:28:36;;;;;;;5.78;1.35;;;;;;;;;;8267241;28;20195;-62
2022/11/01 19:32:36;;;;;;;3.20;1.20;;;;;;;;;;8266567;28;20855;-63
2022/11/01 19:36:38;;;;;;;4.80;1.50;;;;;;;;;;8268415;28;20014;-63
2022/11/01 19:40:40;;;;;;;6.57;1.27;;;;;;;;;;8268770;28;20514;-63
2022/11/01 19:44:40;;;;;;;6.13;1.42;;;;;;;;;;8268647;28;20025;-63
2022/11/01 19:48:42;;;;;;;5.40;1.40;;;;;;;;;;8265853;28;20065;-65
2022/11/01 19:52:42;;;;;;;10.05;1.88;;;;;;;;;;8268527;28;20031;-63
2022/11/01 19:56:43;;;;;;;6.22;1.90;;;;;;;;;;8282125;28;20022;-63
2022/11/01 20:00:43;;;;;;;10.27;1.80;;;;;;;;;;8265731;28;20826;-63
2022/11/01 20:04:43;;;;;;;5.90;1.40;;;;;;;;;;8267625;28;20076;-63
2022/11/01 20:08:46;;;;;;;6.63;1.57;;;;;;;;;;8269435;28;20029;-63
2022/11/01 20:12:47;;;;;;;7.50;1.75;;;;;;;;;;8266136;28;20329;-64
2022/11/01 20:16:47;;;;;;;4.70;1.30;;;;;;;;;;8267492;28;20168;-63
2022/11/01 20:20:47;;;;;;;6.97;1.60;;;;;;;;;;8264977;28;20033;-63
2022/11/01 20:24:47;;;;;;;5.75;1.45;;;;;;;;;;8267088;28;20035;-63
2022/11/01 20:28:48;;;;;;;5.00;1.60;;;;;;;;;;8262324;28;20061;-63
2022/11/01 20:32:50;;;;;;;6.53;1.50;;;;;;;;;;8263637;28;20148;-63
2022/11/01 20:36:50;;;;;;;4.63;1.25;;;;;;;;;;8266706;28;20052;-63
2022/11/01 20:40:50;;;;;;;3.92;1.50;;;;;;;;;;8267065;28;20041;-63
2022/11/01 20:44:51;;;;;;;5.20;1.83;;;;;;;;;;8264697;28;20036;-63
2022/11/01 20:48:51;;;;;;;7.63;1.83;;;;;;;;;;8266533;28;20037;-64
2022/11/01 20:52:51;;;;;;;4.60;1.47;;;;;;;;;;8266183;28;20974;-63
2022/11/01 20:56:51;;;;;;;5.35;1.75;;;;;;;;;;8266774;28;20312;-64
2022/11/01 21:00:52;;;;;;;7.22;1.75;;;;;;;;;;8265217;28;20066;-64
2022/11/01 21:05:10;;;;;;;12.57;2.25;;;;;;;;;;8263808;28;20083;-64
2022/11/01 21:09:24;;;;;;;8.52;2.33;;;;;;;;;;8275318;28;20033;-63
2022/11/01 21:13:24;;;;;;;10.15;2.20;;;;;;;;;;8265227;28;20018;-64
2022/11/01 21:17:26;;;;;;;7.38;1.85;;;;;;;;;;8264923;28;20056;-63
2022/11/01 21:21:30;;;;;;;9.23;1.83;;;;;;;;;;8266039;28;20041;-63
2022/11/01 21:25:32;;;;;;;8.55;1.95;;;;;;;;;;8264508;28;20077;-63
2022/11/01 21:29:32;;;;;;;7.22;2.33;;;;;;;;;;8268104;28;20030;-63
2022/11/01 21:33:35;;;;;;;8.13;2.50;;;;;;;;;;8272515;28;20076;-63
2022/11/01 21:37:35;;;;;;;6.35;2.40;;;;;;;;;;8275487;28;20510;-63
2022/11/01 21:41:42;;;;;;;8.10;1.90;;;;;;;;;;8271700;28;20052;-63
2022/11/01 21:45:44;;;;;;;6.40;1.77;;;;;;;;;;8274351;28;20033;-63
2022/11/01 21:49:45;;;;;;;6.65;1.70;;;;;;;;;;8270061;28;20022;-63
2022/11/01 21:53:45;;;;;;;12.07;1.88;;;;;;;;;;8274221;28;20120;-63
2022/11/01 21:57:45;;;;;;;7.50;1.70;;;;;;;;;;8271568;28;20685;-63
2022/11/01 22:01:46;;;;;;;6.17;1.60;;;;;;;;;;8271566;28;20030;-62
2022/11/01 22:05:46;;;;;;;11.10;1.95;;;;;;;;;;8271750;28;20425;-63
2022/11/01 22:09:47;;;;;;;7.78;2.08;;;;;;;;;;8273166;28;20040;-62
2022/11/01 22:13:47;;;;;;;5.47;1.77;;;;;;;;;;8273519;28;20053;-63
2022/11/01 22:17:47;;;;;;;8.98;1.75;;;;;;;;;;8273402;28;20104;-63
2022/11/01 22:21:48;;;;;;;6.70;1.60;;;;;;;;;;8270694;28;20029;-62
2022/11/01 22:25:48;;;;;;;10.30;2.13;;;;;;;;;;8271378;28;20083;-63
2022/11/01 22:29:49;;;;;;;6.22;1.50;;;;;;;;;;8273322;28;20458;-63
2022/11/01 22:33:53;;;;;;;5.70;1.50;;;;;;;;;;8272985;28;20034;-62
2022/11/01 22:37:53;;;;;;;3.20;1.40;;;;;;;;;;8272119;28;20099;-63
2022/11/01 22:41:53;;;;;;;10.07;1.80;;;;;;;;;;8272975;28;20037;-62
2022/11/01 22:45:54;;;;;;;7.07;1.65;;;;;;;;;;8271422;28;20189;-63
2022/11/01 22:49:55;;;;;;;5.50;1.60;;;;;;;;;;8272461;28;20081;-62
2022/11/01 22:53:57;;;;;;;8.90;1.83;;;;;;;;;;8270971;28;20109;-62
2022/11/01 22:58:23;;;;;;;8.40;1.77;;;;;;;;;;8271699;28;20670;-62
2022/11/01 23:02:25;;;;;;;6.30;1.60;;;;;;;;;;8268490;28;20068;-62
2022/11/01 23:06:33;;;;;;;7.75;1.70;;;;;;;;;;8272153;28;20927;-62
2022/11/01 23:10:33;;;;;;;6.35;1.80;;;;;;;;;;8269416;28;20060;-62
2022/11/01 23:14:38;;;;;;;8.05;2.15;;;;;;;;;;8271305;28;20777;-62
2022/11/01 23:18:39;;;;;;;9.45;1.70;;;;;;;;;;8268764;28;20801;-62
2022/11/01 23:22:39;;;;;;;5.40;1.98;;;;;;;;;;8269133;28;20761;-62
2022/11/01 23:26:40;;;;;;;3.63;1.33;;;;;;;;;;8270584;28;20053;-62
2022/11/01 23:30:41;;;;;;;5.77;1.80;;;;;;;;;;8270692;28;20308;-63
2022/11/01 23:34:41;;;;;;;5.78;1.90;;;;;;;;;;8269870;28;20362;-62
2022/11/01 23:38:47;;;;;;;7.70;1.70;;;;;;;;;;8268131;28;20482;-64
2022/11/01 23:42:47;;;;;;;9.38;1.77;;;;;;;;;;8269615;28;20073;-62
2022/11/01 23:46:48;;;;;;;8.70;1.77;;;;;;;;;;8270368;28;20038;-62
2022/11/01 23:50:49;;;;;;;6.05;1.70;;;;;;;;;;8267375;28;20500;-63
2022/11/01 23:54:50;;;;;;;7.28;1.50;;;;;;;;;;8268364;28;20068;-63
2022/11/01 23:58:57;;;;;;;8.25;1.73;;;;;;;;;;8267975;28;20272;-63
